Terminal Aerodrome Forecast
Issued by NWS Shreveport, LA

Home | Current Version | Previous Version | Text Only | Print | Product List | Glossary On
Versions: 1 2 3 4 5 6 7 8 9 10 11 12 13 14 15 16 17
093
FTUS44 KSHV 241720
TAFTXK
TAF
KTXK 241720Z 2418/2518 22008KT P6SM SCT035
     FM242100 19007KT P6SM SCT050
     FM250100 16005KT P6SM SCT250
      TEMPO 2511/2513 5SM BR SCT005
     FM251300 22005KT P6SM SCT005 SCT250
     FM251500 24006KT P6SM SCT015 BKN250=

USA.gov is the U.S. government's official web portal to all federal, state and local government web resources and services.